createdAt,value
2018-11-05T00:01:50.296Z,87.73
2018-11-05T00:04:21.161Z,87.52
2018-11-05T00:06:52.496Z,87.59
2018-11-05T00:09:23.686Z,87.13
2018-11-05T00:11:54.541Z,87.20
2018-11-05T00:14:25.675Z,87.02
2018-11-05T00:16:56.578Z,87.10
2018-11-05T00:19:27.521Z,87.24
2018-11-05T00:21:59.259Z,87.13
2018-11-05T00:24:30.357Z,87.04
2018-11-05T00:27:01.245Z,87.18
2018-11-05T00:29:32.410Z,87.40
2018-11-05T00:32:03.855Z,87.40
2018-11-05T00:34:34.816Z,87.29
2018-11-05T00:37:06.396Z,87.27
2018-11-05T00:39:37.314Z,87.34
2018-11-05T00:42:08.229Z,87.30
2018-11-05T00:44:39.618Z,87.03
2018-11-05T00:47:11.436Z,87.31
2018-11-05T00:49:42.257Z,87.25
2018-11-05T00:52:13.168Z,87.31
2018-11-05T00:54:44.701Z,87.18
2018-11-05T00:57:15.866Z,87.30
2018-11-05T00:59:47.045Z,87.20
2018-11-05T01:02:19.065Z,87.33
2018-11-05T01:04:50.495Z,86.73
2018-11-05T01:07:21.510Z,86.92
2018-11-05T01:09:52.777Z,86.89
2018-11-05T01:12:23.811Z,86.69
2018-11-05T01:14:56.031Z,86.85
2018-11-05T01:17:26.895Z,86.87
2018-11-05T01:19:57.858Z,86.91
2018-11-05T01:22:28.806Z,86.78
2018-11-05T01:25:00.103Z,86.55
2018-11-05T01:27:31.288Z,86.31
2018-11-05T01:30:02.247Z,86.26
2018-11-05T01:32:33.183Z,86.30
2018-11-05T01:35:04.414Z,86.78
2018-11-05T01:37:35.271Z,87.00
2018-11-05T01:40:07.899Z,86.78
2018-11-05T01:42:39.194Z,86.49
2018-11-05T01:45:12.164Z,86.58
2018-11-05T01:47:44.143Z,86.74
2018-11-05T01:50:16.716Z,86.68
2018-11-05T01:52:47.604Z,86.84
2018-11-05T01:55:19.527Z,87.18
2018-11-05T01:57:50.439Z,87.05
2018-11-05T02:00:21.339Z,86.86
2018-11-05T02:02:52.260Z,86.84
2018-11-05T02:05:23.578Z,87.17
2018-11-05T02:07:54.558Z,86.92
2018-11-05T02:10:25.640Z,86.83
2018-11-05T02:12:56.766Z,86.74
2018-11-05T02:15:28.093Z,86.71
2018-11-05T02:17:58.992Z,86.82
2018-11-05T02:20:30.336Z,86.95
2018-11-05T02:23:01.289Z,87.29
2018-11-05T02:25:32.227Z,87.24
2018-11-05T02:28:03.252Z,87.38
2018-11-05T02:30:34.451Z,87.36
2018-11-05T02:33:05.522Z,87.09
2018-11-05T02:35:36.485Z,87.16
2018-11-05T02:38:07.507Z,87.00
2018-11-05T02:40:38.427Z,86.68
2018-11-05T02:43:09.715Z,86.88
2018-11-05T02:45:40.602Z,87.12
2018-11-05T02:48:11.592Z,87.17
2018-11-05T02:50:42.583Z,87.29
2018-11-05T02:53:13.894Z,87.17
2018-11-05T02:55:44.963Z,87.11
2018-11-05T02:58:15.858Z,87.44
2018-11-05T03:00:46.816Z,87.65
2018-11-05T03:03:17.922Z,87.28
2018-11-05T03:05:48.771Z,87.21
2018-11-05T03:08:19.739Z,86.83
2018-11-05T03:10:50.639Z,87.25
2018-11-05T03:13:21.576Z,87.54
2018-11-05T03:15:52.505Z,87.56
2018-11-05T03:18:23.433Z,87.85
2018-11-05T03:20:54.385Z,88.06
2018-11-05T03:23:25.780Z,87.70
2018-11-05T03:25:56.776Z,87.47
2018-11-05T03:28:27.657Z,87.36
2018-11-05T03:30:58.859Z,87.30
2018-11-05T03:33:29.838Z,87.18
2018-11-05T03:36:00.970Z,87.38
2018-11-05T03:38:31.708Z,87.55
2018-11-05T03:41:02.669Z,87.32
2018-11-05T03:43:33.646Z,87.07
2018-11-05T03:46:04.574Z,86.99
2018-11-05T03:48:35.518Z,87.20
2018-11-05T03:51:06.772Z,87.44
2018-11-05T03:53:37.737Z,87.45
2018-11-05T03:56:09.631Z,87.07
2018-11-05T03:58:40.532Z,87.00
2018-11-05T04:01:11.834Z,87.27
2018-11-05T04:03:42.834Z,87.76
2018-11-05T04:06:13.674Z,87.76
2018-11-05T04:08:44.657Z,87.68
2018-11-05T04:11:15.561Z,87.46
2018-11-05T04:13:47.506Z,87.75
2018-11-05T04:16:18.479Z,88.03
2018-11-05T04:18:50.004Z,87.85
2018-11-05T04:21:21.305Z,87.84
2018-11-05T04:23:52.315Z,87.97
2018-11-05T04:26:23.525Z,87.98
2018-11-05T04:28:54.443Z,87.99
2018-11-05T04:31:25.704Z,87.72
2018-11-05T04:33:57.040Z,87.54
2018-11-05T04:36:28.365Z,87.81
2018-11-05T04:38:59.311Z,87.86
2018-11-05T04:41:30.695Z,88.08
2018-11-05T04:44:02.285Z,88.01
2018-11-05T04:46:33.401Z,87.89
2018-11-05T04:49:04.328Z,87.80
2018-11-05T04:51:35.266Z,87.66
2018-11-05T04:54:06.755Z,87.75
2018-11-05T04:56:37.690Z,87.63
2018-11-05T04:59:09.184Z,87.84
2018-11-05T05:01:40.205Z,87.67
2018-11-05T05:04:11.233Z,87.64
2018-11-05T05:06:42.435Z,87.65
2018-11-05T05:09:13.892Z,87.54
2018-11-05T05:11:45.142Z,87.56
2018-11-05T05:14:16.363Z,87.68
2018-11-05T05:16:47.832Z,87.67
2018-11-05T05:19:19.370Z,87.88
2018-11-05T05:21:50.638Z,87.67
2018-11-05T05:24:21.682Z,87.65
2018-11-05T05:54:33.241Z,87.43
2018-11-05T05:57:04.424Z,87.58
2018-11-05T05:59:35.367Z,87.97
2018-11-05T06:02:06.507Z,87.90
2018-11-05T06:04:37.694Z,88.06
2018-11-05T06:07:09.164Z,88.04
2018-11-05T06:09:40.294Z,87.98
2018-11-05T06:12:11.156Z,87.87
2018-11-05T06:14:42.762Z,87.98
2018-11-05T06:17:13.543Z,87.77
2018-11-05T06:19:44.758Z,87.84
2018-11-05T06:22:15.990Z,88.15
2018-11-05T06:24:46.830Z,88.29
2018-11-05T06:27:17.693Z,88.01
2018-11-05T06:29:48.590Z,88.10
2018-11-05T06:32:19.493Z,87.87
2018-11-05T06:34:50.944Z,88.12
2018-11-05T06:37:22.374Z,87.95
2018-11-05T06:39:53.239Z,87.90
2018-11-05T06:42:24.072Z,87.93
2018-11-05T06:44:54.932Z,88.06
2018-11-05T06:47:25.745Z,87.78
2018-11-05T06:49:56.610Z,87.90
2018-11-05T06:52:27.468Z,87.90
2018-11-05T06:54:58.324Z,88.03
2018-11-05T06:57:29.211Z,87.64
2018-11-05T07:00:00.013Z,87.67
2018-11-05T07:02:31.255Z,87.64
2018-11-05T07:05:02.114Z,87.33
2018-11-05T07:07:33.474Z,87.31
2018-11-05T07:10:04.422Z,87.45
2018-11-05T07:12:35.307Z,87.52
2018-11-05T07:15:06.949Z,87.37
2018-11-05T07:17:37.894Z,87.16
2018-11-05T07:20:12.374Z,87.23
2018-11-05T07:22:43.783Z,87.17
2018-11-05T07:25:15.643Z,87.28
2018-11-05T07:27:46.921Z,87.43
2018-11-05T07:30:22.344Z,87.46
2018-11-05T07:32:54.560Z,87.53
2018-11-05T07:35:25.472Z,87.04
2018-11-05T07:37:56.338Z,87.18
2018-11-05T07:40:27.244Z,87.12
2018-11-05T07:42:58.125Z,86.55
2018-11-05T07:45:29.315Z,86.63
2018-11-05T07:48:00.470Z,86.43
2018-11-05T07:50:31.658Z,86.32
2018-11-05T07:53:03.028Z,86.25
2018-11-05T07:55:33.935Z,85.79
2018-11-05T07:58:05.086Z,85.67
2018-11-05T08:00:53.305Z,85.38
2018-11-05T08:03:24.405Z,85.17
2018-11-05T08:05:55.685Z,84.79
2018-11-05T08:08:26.669Z,84.70
2018-11-05T08:10:57.762Z,84.09
2018-11-05T08:13:28.672Z,83.83
2018-11-05T08:16:00.296Z,83.93
2018-11-05T08:18:31.152Z,84.01
2018-11-05T08:21:02.007Z,83.57
2018-11-05T08:23:32.875Z,83.84
2018-11-05T08:26:03.739Z,83.33
2018-11-05T08:28:34.864Z,83.05
2018-11-05T08:31:06.638Z,82.78
2018-11-05T08:33:37.811Z,82.87
2018-11-05T08:36:08.969Z,82.43
2018-11-05T08:38:39.851Z,82.47
2018-11-05T08:41:10.987Z,82.96
2018-11-05T08:43:41.896Z,82.49
2018-11-05T08:46:13.019Z,82.33
2018-11-05T08:48:43.887Z,82.28
2018-11-05T08:51:15.135Z,82.02
2018-11-05T08:53:45.685Z,82.36
2018-11-05T08:56:16.515Z,82.04
2018-11-05T08:58:47.663Z,82.09
2018-11-05T09:01:19.214Z,81.90
2018-11-05T09:03:51.174Z,80.87
2018-11-05T09:06:22.037Z,80.83
2018-11-05T09:08:53.312Z,80.88
2018-11-05T09:11:24.516Z,80.95
2018-11-05T09:13:55.204Z,81.31
2018-11-05T09:16:26.383Z,80.87
2018-11-05T09:18:57.526Z,80.54
2018-11-05T09:21:28.443Z,80.27
2018-11-05T09:23:59.693Z,80.28
2018-11-05T09:26:30.807Z,80.07
2018-11-05T09:29:01.785Z,80.08
2018-11-05T09:31:33.065Z,80.13
2018-11-05T09:34:04.289Z,79.78
2018-11-05T09:36:35.456Z,80.46
2018-11-05T09:39:08.343Z,80.56
2018-11-05T09:41:39.228Z,79.84
2018-11-05T09:44:10.411Z,79.26
2018-11-05T09:46:41.260Z,79.50
2018-11-05T09:49:12.168Z,79.98
2018-11-05T09:51:43.093Z,79.37
2018-11-05T09:54:13.942Z,79.32
2018-11-05T09:56:45.352Z,79.31
2018-11-05T09:59:16.294Z,78.31
2018-11-05T10:01:47.160Z,78.52
2018-11-05T10:04:18.145Z,78.02
2018-11-05T10:06:49.430Z,78.29
2018-11-05T10:09:20.350Z,77.80
2018-11-05T10:11:51.168Z,77.84
2018-11-05T10:14:22.038Z,77.89
2018-11-05T10:16:53.430Z,76.66
2018-11-05T10:19:24.308Z,76.61
2018-11-05T10:21:57.983Z,76.74
2018-11-05T10:24:29.181Z,76.57
2018-11-05T10:27:00.529Z,76.77
2018-11-05T10:29:31.477Z,75.67
2018-11-05T10:32:02.553Z,75.52
2018-11-05T10:34:33.418Z,75.11
2018-11-05T10:37:04.296Z,75.06
2018-11-05T10:39:54.047Z,74.49
2018-11-05T10:42:25.223Z,74.26
2018-11-05T10:44:56.403Z,74.17
2018-11-05T10:47:27.561Z,74.62
2018-11-05T10:49:59.016Z,74.39
2018-11-05T10:52:30.160Z,74.39
2018-11-05T10:55:01.114Z,74.95
2018-11-05T11:00:03.269Z,73.44
2018-11-05T11:02:41.313Z,72.28
2018-11-05T11:05:12.383Z,68.12
2018-11-05T11:07:43.332Z,63.58
2018-11-05T11:10:14.221Z,59.39
2018-11-05T11:12:45.273Z,58.63
2018-11-05T11:15:16.395Z,56.43
2018-11-05T11:17:47.185Z,57.41
2018-11-05T11:20:18.073Z,56.22
2018-11-05T11:22:49.199Z,56.69
2018-11-05T11:25:20.208Z,57.52
2018-11-05T11:27:51.181Z,58.85
2018-11-05T11:30:22.326Z,59.67
2018-11-05T11:32:53.691Z,61.60
2018-11-05T11:35:24.592Z,62.51
2018-11-05T11:37:55.463Z,63.86
2018-11-05T11:40:26.340Z,64.16
2018-11-05T11:42:57.186Z,62.69
2018-11-05T11:45:28.058Z,64.47
2018-11-05T11:47:58.992Z,64.99
2018-11-05T11:50:29.878Z,66.35
2018-11-05T11:53:01.081Z,65.72
2018-11-05T11:55:31.955Z,64.97
2018-11-05T11:58:02.819Z,64.99
2018-11-05T12:00:33.971Z,64.31
2018-11-05T12:03:04.831Z,65.81
2018-11-05T12:05:35.989Z,65.07
2018-11-05T12:08:07.076Z,62.84
2018-11-05T12:10:37.964Z,59.79
2018-11-05T12:13:08.845Z,55.11
2018-11-05T12:15:39.761Z,52.45
2018-11-05T12:18:10.665Z,50.98
2018-11-05T12:20:41.540Z,51.50
2018-11-05T12:23:12.411Z,51.42
2018-11-05T12:25:43.646Z,49.24
2018-11-05T12:28:14.504Z,49.98
2018-11-05T12:30:45.367Z,50.63
2018-11-05T12:33:16.465Z,50.39
2018-11-05T12:35:47.319Z,49.27
2018-11-05T12:38:18.441Z,50.55
2018-11-05T12:40:49.329Z,50.47
2018-11-05T12:43:20.175Z,48.88
2018-11-05T12:45:51.289Z,49.15
2018-11-05T12:48:22.261Z,49.61
2018-11-05T12:50:53.073Z,48.85
2018-11-05T12:53:24.184Z,49.44
2018-11-05T12:55:55.100Z,50.37
2018-11-05T12:58:25.899Z,50.29
2018-11-05T13:03:28.148Z,51.32
2018-11-05T13:05:58.998Z,50.64
2018-11-05T13:08:29.850Z,50.33
2018-11-05T13:11:00.960Z,50.46
2018-11-05T13:13:31.833Z,50.98
2018-11-05T13:16:02.681Z,49.94
2018-11-05T13:18:33.808Z,48.76
2018-11-05T13:21:04.652Z,47.79
2018-11-05T13:23:38.955Z,48.06
2018-11-05T13:26:09.843Z,48.14
2018-11-05T13:28:41.242Z,48.77
2018-11-05T13:31:12.110Z,49.14
2018-11-05T13:33:42.946Z,49.08
2018-11-05T13:36:13.812Z,49.27
2018-11-05T13:38:44.989Z,51.13
2018-11-05T13:41:16.257Z,50.39
2018-11-05T13:43:47.098Z,50.39
2018-11-05T13:46:18.203Z,50.00
2018-11-05T13:48:49.677Z,50.19
2018-11-05T13:51:19.918Z,50.35
2018-11-05T13:53:51.261Z,50.96
2018-11-05T13:56:22.142Z,50.67
2018-11-05T13:58:52.997Z,50.75
2018-11-05T14:01:24.194Z,49.00
2018-11-05T14:03:55.133Z,49.83
2018-11-05T14:06:25.998Z,50.18
2018-11-05T14:08:57.191Z,50.09
2018-11-05T14:11:28.105Z,49.68
2018-11-05T14:13:58.967Z,50.94
2018-11-05T14:16:29.907Z,50.01
2018-11-05T14:19:00.623Z,51.01
2018-11-05T14:21:31.457Z,50.91
2018-11-05T14:24:02.385Z,49.62
2018-11-05T14:26:33.262Z,50.56
2018-11-05T14:29:04.557Z,50.68
2018-11-05T14:31:35.088Z,51.49
2018-11-05T14:34:06.241Z,51.51
2018-11-05T14:36:37.188Z,52.25
2018-11-05T14:39:13.176Z,52.36
2018-11-05T14:41:44.315Z,52.82
2018-11-05T14:44:15.248Z,53.03
2018-11-05T14:46:46.104Z,53.09
2018-11-05T14:49:16.956Z,54.45
2018-11-05T14:51:48.055Z,53.85
2018-11-05T14:54:19.031Z,55.12
2018-11-05T14:56:49.872Z,57.90
2018-11-05T14:59:20.808Z,59.70
2018-11-05T15:02:10.316Z,60.58
2018-11-05T15:04:41.139Z,61.82
2018-11-05T15:07:12.041Z,63.09
2018-11-05T15:09:42.857Z,64.37
2018-11-05T15:12:13.968Z,65.04
2018-11-05T15:14:45.412Z,65.33
2018-11-05T15:17:16.551Z,66.57
2018-11-05T15:19:47.819Z,66.73
2018-11-05T15:22:18.459Z,67.72
2018-11-05T15:24:49.610Z,68.77
2018-11-05T15:27:20.457Z,69.32
2018-11-05T15:29:51.349Z,70.52
2018-11-05T15:32:22.294Z,71.65
2018-11-05T15:34:53.197Z,72.35
2018-11-05T15:37:24.600Z,73.09
2018-11-05T15:39:55.421Z,73.41
2018-11-05T15:42:26.555Z,73.76
2018-11-05T15:44:57.407Z,73.57
2018-11-05T15:47:28.228Z,73.70
2018-11-05T15:49:59.089Z,74.15
2018-11-05T15:52:30.456Z,74.90
2018-11-05T15:55:01.336Z,75.46
2018-11-05T15:57:32.434Z,75.64
2018-11-05T16:00:03.417Z,76.03
2018-11-05T16:02:34.257Z,76.20
2018-11-05T16:05:05.396Z,75.95
2018-11-05T16:07:36.230Z,76.21
2018-11-05T16:10:09.039Z,76.20
2018-11-05T16:12:40.026Z,76.04
2018-11-05T16:15:11.965Z,76.21
2018-11-05T16:17:43.107Z,76.15
2018-11-05T16:20:19.033Z,76.38
2018-11-05T16:22:51.043Z,76.87
2018-11-05T16:25:21.936Z,77.10
2018-11-05T16:27:52.790Z,77.39
2018-11-05T16:30:23.790Z,76.99
2018-11-05T16:32:54.564Z,77.51
2018-11-05T16:35:25.500Z,78.22
2018-11-05T16:37:56.623Z,78.33
2018-11-05T16:40:27.531Z,78.79
2018-11-05T16:42:58.604Z,78.79
2018-11-05T16:45:29.466Z,78.46
2018-11-05T16:48:00.297Z,78.54
2018-11-05T16:50:31.197Z,78.60
2018-11-05T16:53:02.573Z,78.37
2018-11-05T16:55:33.704Z,77.98
2018-11-05T16:58:04.884Z,77.58
2018-11-05T17:00:35.858Z,77.15
2018-11-05T17:03:07.422Z,76.80
2018-11-05T17:05:38.238Z,76.61
2018-11-05T17:08:09.082Z,76.98
2018-11-05T17:10:39.964Z,77.52
2018-11-05T17:13:11.117Z,77.98
2018-11-05T17:15:42.216Z,78.73
2018-11-05T17:18:13.892Z,79.46
2018-11-05T17:20:46.649Z,80.51
2018-11-05T17:23:17.491Z,80.64
2018-11-05T17:25:48.374Z,80.95
2018-11-05T17:28:19.599Z,80.80
2018-11-05T17:30:50.460Z,80.06
2018-11-05T17:33:21.588Z,79.91
2018-11-05T17:35:52.444Z,79.52
2018-11-05T17:38:23.302Z,78.98
2018-11-05T17:40:54.423Z,79.29
2018-11-05T17:43:25.921Z,79.47
2018-11-05T17:45:56.761Z,79.67
2018-11-05T17:48:27.637Z,80.16
2018-11-05T17:50:58.855Z,81.21
2018-11-05T17:53:30.314Z,81.49
2018-11-05T17:56:01.449Z,81.60
2018-11-05T17:58:32.426Z,82.03
2018-11-05T18:01:03.808Z,81.64
2018-11-05T18:03:34.780Z,81.61
2018-11-05T18:06:05.745Z,81.94
2018-11-05T18:08:36.717Z,81.83
2018-11-05T18:11:07.930Z,82.88
2018-11-05T18:13:39.309Z,83.46
2018-11-05T18:16:10.837Z,84.49
2018-11-05T18:18:42.116Z,83.59
2018-11-05T18:21:14.127Z,83.74
2018-11-05T18:23:45.399Z,84.06
2018-11-05T18:26:16.921Z,83.98
2018-11-05T18:28:48.162Z,84.22
2018-11-05T18:31:19.068Z,84.43
2018-11-05T18:33:49.955Z,83.73
2018-11-05T18:36:21.195Z,82.95
2018-11-05T18:38:52.171Z,84.04
2018-11-05T18:41:24.012Z,84.63
2018-11-05T18:43:55.152Z,85.09
2018-11-05T18:46:26.178Z,84.31
2018-11-05T18:48:57.587Z,83.13
2018-11-05T18:51:28.470Z,84.39
2018-11-05T18:53:59.377Z,83.83
2018-11-05T18:56:30.302Z,82.50
2018-11-05T18:59:01.500Z,83.56
2018-11-05T19:01:32.334Z,85.33
2018-11-05T19:04:03.545Z,85.03
2018-11-05T19:06:34.731Z,85.16
2018-11-05T19:09:07.735Z,84.32
2018-11-05T19:11:38.931Z,84.86
2018-11-05T19:14:09.958Z,83.27
2018-11-05T19:16:41.213Z,82.75
2018-11-05T19:19:12.474Z,83.84
2018-11-05T19:21:43.466Z,84.85
2018-11-05T19:24:14.791Z,86.72
2018-11-05T19:26:45.702Z,87.89
2018-11-05T19:29:16.954Z,87.96
2018-11-05T19:31:48.720Z,86.85
2018-11-05T19:34:19.987Z,86.14
2018-11-05T19:36:50.923Z,85.90
2018-11-05T19:39:22.097Z,85.80
2018-11-05T19:41:53.467Z,85.08
2018-11-05T19:44:24.339Z,84.99
2018-11-05T19:46:56.095Z,85.08
2018-11-05T19:49:27.315Z,85.46
2018-11-05T19:51:58.515Z,85.47
2018-11-05T19:54:29.488Z,85.93
2018-11-05T19:57:00.420Z,85.27
2018-11-05T19:59:31.357Z,85.47
2018-11-05T20:02:02.223Z,85.24
2018-11-05T20:04:33.168Z,86.12
2018-11-05T20:07:04.923Z,86.59
2018-11-05T20:09:35.840Z,86.11
2018-11-05T20:12:07.322Z,85.65
2018-11-05T20:14:38.501Z,85.40
2018-11-05T20:17:09.504Z,85.44
2018-11-05T20:19:40.540Z,85.05
2018-11-05T20:22:11.616Z,85.00
2018-11-05T20:24:42.599Z,85.00
2018-11-05T20:27:13.499Z,85.35
2018-11-05T20:29:44.716Z,84.90
2018-11-05T20:32:16.195Z,85.44
2018-11-05T20:34:47.264Z,85.58
2018-11-05T20:37:18.206Z,85.03
2018-11-05T20:39:49.517Z,85.23
2018-11-05T20:42:20.366Z,85.04
2018-11-05T20:44:51.531Z,85.24
2018-11-05T20:47:22.773Z,85.88
2018-11-05T20:49:53.995Z,85.92
2018-11-05T20:52:25.313Z,86.31
2018-11-05T20:54:56.261Z,85.96
2018-11-05T20:57:27.674Z,86.45
2018-11-05T20:59:58.717Z,86.86
2018-11-05T21:02:30.173Z,86.87
2018-11-05T21:05:01.015Z,86.47
2018-11-05T21:07:31.917Z,86.80
2018-11-05T21:10:03.024Z,87.49
2018-11-05T21:12:34.019Z,87.83
2018-11-05T21:15:05.453Z,87.83
2018-11-05T21:17:36.386Z,87.44
2018-11-05T21:20:07.259Z,87.85
2018-11-05T21:22:38.538Z,87.97
2018-11-05T21:25:09.807Z,86.99
2018-11-05T21:27:41.815Z,88.11
2018-11-05T21:30:15.718Z,87.76
2018-11-05T21:32:46.647Z,87.81
2018-11-05T21:35:18.817Z,87.71
2018-11-05T21:37:50.353Z,88.08
2018-11-05T21:40:21.662Z,87.46
2018-11-05T21:42:52.525Z,87.00
2018-11-05T21:45:23.640Z,88.50
2018-11-05T21:47:54.616Z,86.92
2018-11-05T21:50:27.223Z,87.30
2018-11-05T21:52:58.395Z,87.06
2018-11-05T21:55:29.280Z,87.29
2018-11-05T21:58:00.237Z,89.43
2018-11-05T22:00:31.863Z,89.63
2018-11-05T22:03:06.144Z,89.98
2018-11-05T22:05:37.117Z,88.48
2018-11-05T22:08:08.336Z,88.24
2018-11-05T22:10:39.228Z,89.53
2018-11-05T22:13:10.456Z,88.94
2018-11-05T22:15:45.434Z,88.62
2018-11-05T22:18:17.304Z,88.73
2018-11-05T22:20:48.153Z,88.92
2018-11-05T22:23:19.392Z,88.95
2018-11-05T22:25:50.359Z,88.94
2018-11-05T22:28:21.497Z,88.87
2018-11-05T22:30:52.530Z,88.59
2018-11-05T22:33:23.621Z,88.31
2018-11-05T22:35:54.779Z,88.95
2018-11-05T22:38:25.761Z,89.22
2018-11-05T22:40:56.680Z,89.14
2018-11-05T22:43:27.855Z,88.74
2018-11-05T22:45:58.799Z,88.16
2018-11-05T22:48:30.204Z,88.46
2018-11-05T22:51:01.286Z,88.84
2018-11-05T22:53:32.222Z,88.85
2018-11-05T22:56:03.470Z,89.27
2018-11-05T22:58:34.677Z,88.88
2018-11-05T23:01:09.753Z,88.96
2018-11-05T23:03:41.084Z,89.42
2018-11-05T23:06:12.203Z,89.16
2018-11-05T23:08:43.344Z,89.08
2018-11-05T23:11:14.847Z,89.05
2018-11-05T23:13:45.741Z,89.34
2018-11-05T23:16:16.645Z,89.41
2018-11-05T23:18:48.135Z,89.02
2018-11-05T23:21:19.415Z,89.92
2018-11-05T23:23:50.341Z,90.04
2018-11-05T23:26:21.574Z,89.62
2018-11-05T23:28:52.912Z,89.26
2018-11-05T23:31:24.193Z,89.69
2018-11-05T23:33:55.443Z,89.25
2018-11-05T23:36:26.357Z,89.42
2018-11-05T23:38:57.554Z,89.29
2018-11-05T23:41:28.527Z,89.06
2018-11-05T23:43:59.751Z,88.69
2018-11-05T23:46:30.884Z,89.45
2018-11-05T23:49:01.874Z,89.23
2018-11-05T23:51:33.418Z,89.06
2018-11-05T23:54:04.302Z,89.36
2018-11-05T23:56:35.119Z,89.43
2018-11-05T23:59:06.225Z,89.90
